Sidney, Nebraska
Current Conditions -  °F | °C
As of 11:53 AM on Friday 31 Oct 2014 (Local Time) from KSNY Reporting Station
Clear Clear  
Wind Chill: 34°   Ceiling: Unl
Heat Index: 43°   Visibility: 10mi
Dew Point: 30°   Wind: 21mph
Humidity: 60%   Direction: 170°S
Pressure: 30.35"   Gusts: NA
Location:  41.14°N, 102.97°W
Report Text: KSNY 311753Z AUTO 17018KT 10SM CLR 06/M01 A3035 RMK AO2 SLP295 T00611011 10061 21039 58020
Loading
Personal Weather Stations






























Interactive Weather Map
Tropical Storm Tracking
New forecast layout! Learn more

10-Day Weather Forecast

Advertisements
Track Severe Weather on mobile